Tropical Cyclones
[Index]
Main Index Home Page Stock Weather Photos Extreme Storms Discussion Storm News and Storm Chasing Reports Tropical Cyclones / Hurricanes / Typhoons Weather Data and Links Wild Fires / Bushfires Weather Observation Techniques Weather Picture Catalogue Tornado Pictures and Reports Stock Video Footage and DVDs for sale
Season 1977-1978 Tropical Cyclone TOM Track Map
Season 1977-1978 Summaries: [BoM-AU] [JTWC-AU] [JTWC-SIO] [JTWC-SPAC] [JTWC-SH]
<<- Previous TC | JTWC 1977-1978 Season | Next TC ->>

click for intensity scale information  Lat/long Grid: Show Hide

 Date Labels: Show Hide

Joint Typhoon Warning Centre Cyclone Data

Name: TOM
Number: 957 / 7801

06 Nov 1977 00:00 UTC to 12 Nov 1977 00:00 UTC

    date/time    lat    long     hPa   cat  kts
1977-11-06 00    7.0   158.0                  30          
1977-11-06 06    8.3   156.9                  35          
1977-11-06 12    9.0   156.0                  35          
1977-11-06 18    9.0   155.3                  35          
1977-11-07 00    9.0   154.6                  35          
1977-11-07 06    9.2   154.0                  35          
1977-11-07 12    9.5   153.4                  35          
1977-11-07 18   10.0   153.1                  35          
1977-11-08 00   10.6   153.0                  35          
1977-11-08 06   11.1   152.9            1     40          
1977-11-08 12   11.5   153.0            1     50          
1977-11-08 18   11.8   153.3            1     50          
1977-11-09 00   12.1   153.9            1     50          
1977-11-09 06   12.3   154.6            1     50          
1977-11-09 12   12.5   155.5            1     50          
1977-11-09 18   12.8   156.5            1     50          
1977-11-10 00   13.1   157.5            1     45          
1977-11-10 06   13.5   158.6            1     40          
1977-11-10 12   13.9   159.6                  35          
1977-11-10 18   14.4   160.2                  30          
1977-11-11 00   15.0   160.4                  30          
1977-11-11 06   15.5   160.4                  30          
1977-11-11 12   16.0   160.2                  30          
1977-11-11 18   17.0   160.0                  30          
1977-11-12 00   18.5   159.7                  25          
Winds are 1-min average.

Tropical cyclone tracks developed by Michael Bath using data from the Joint Typhoon Warning Centre Best Tracks and Google Maps.


[Australian Severe Weather index] [Copyright Notice] [Email Contacts] [Search This Site] [Privacy Policy]
Document: tropical_cyclone_tom.htm Updated: 18 September 2016